createdAt,value
2022-11-28T00:02:00.563Z,100811.63
2022-11-28T00:04:31.521Z,100815.19
2022-11-28T00:07:02.280Z,100820.72
2022-11-28T00:09:33.377Z,100814.91
2022-11-28T00:12:04.531Z,100812.44
2022-11-28T00:14:35.285Z,100812.59
2022-11-28T00:17:06.444Z,100810.47
2022-11-28T00:19:37.648Z,100810.50
2022-11-28T00:22:08.629Z,100818.50
2022-11-28T00:24:40.240Z,100807.44
2022-11-28T00:27:11.814Z,100812.38
2022-11-28T00:29:42.939Z,100818.06
2022-11-28T00:32:14.351Z,100814.38
2022-11-28T00:34:45.130Z,100815.09
2022-11-28T00:37:16.525Z,100831.09
2022-11-28T00:39:47.456Z,100824.88
2022-11-28T00:42:22.080Z,100820.88
2022-11-28T00:44:53.011Z,100825.34
2022-11-28T00:47:23.981Z,100818.22
2022-11-28T00:49:54.971Z,100821.00
2022-11-28T00:52:25.873Z,100820.50
2022-11-28T00:54:57.166Z,100822.25
2022-11-28T00:57:28.097Z,100815.41
2022-11-28T00:59:59.083Z,100832.09
2022-11-28T01:02:30.790Z,100832.44
2022-11-28T01:05:03.029Z,100844.41
2022-11-28T01:07:35.812Z,100841.06
2022-11-28T01:10:07.608Z,100844.03
2022-11-28T01:12:38.627Z,100838.66
2022-11-28T01:15:12.417Z,100831.41
2022-11-28T01:17:43.539Z,100847.94
2022-11-28T01:20:15.235Z,100838.78
2022-11-28T01:22:46.342Z,100840.03
2022-11-28T01:25:17.677Z,100829.53
2022-11-28T01:27:48.821Z,100846.81
2022-11-28T01:30:20.075Z,100853.56
2022-11-28T01:32:51.042Z,100853.19
2022-11-28T01:35:22.264Z,100850.09
2022-11-28T01:37:53.754Z,100855.41
2022-11-28T01:40:24.732Z,100842.09
2022-11-28T01:42:55.609Z,100846.31
2022-11-28T01:45:32.777Z,100859.44
2022-11-28T01:48:05.444Z,100849.56
2022-11-28T01:50:37.592Z,100839.06
2022-11-28T01:53:11.463Z,100845.97
2022-11-28T01:55:54.809Z,100844.91
2022-11-28T01:58:26.999Z,100837.81
2022-11-28T02:00:57.967Z,100841.09
2022-11-28T02:03:36.010Z,100854.09
2022-11-28T02:06:07.226Z,100855.69
2022-11-28T02:08:39.259Z,100857.66
2022-11-28T02:11:14.725Z,100866.72
2022-11-28T02:14:13.067Z,100847.81
2022-11-28T02:17:14.247Z,100851.88
2022-11-28T02:20:06.394Z,100850.53
2022-11-28T02:23:01.437Z,100858.97
2022-11-28T02:26:00.627Z,100853.91
2022-11-28T02:28:51.708Z,100863.19
2022-11-28T02:31:37.303Z,100860.56
2022-11-28T02:34:34.945Z,100864.63
2022-11-28T02:37:16.903Z,100876.75
2022-11-28T02:39:57.610Z,100881.28
2022-11-28T02:42:45.701Z,100890.91
2022-11-28T02:45:26.317Z,100885.28
2022-11-28T02:48:15.211Z,100884.09
2022-11-28T02:51:09.941Z,100871.75
2022-11-28T02:53:41.835Z,100869.19
2022-11-28T02:56:13.731Z,100882.50
2022-11-28T02:58:44.758Z,100875.22
2022-11-28T03:01:21.951Z,100879.34
2022-11-28T03:03:59.365Z,100872.84
2022-11-28T03:06:51.228Z,100885.94
2022-11-28T03:09:46.569Z,100874.97
2022-11-28T03:12:30.584Z,100871.72
2022-11-28T03:15:07.222Z,100881.50
2022-11-28T03:17:59.329Z,100887.16
2022-11-28T03:20:50.169Z,100891.38
2022-11-28T03:23:45.150Z,100890.25
2022-11-28T03:26:38.709Z,100889.22
2022-11-28T03:29:30.723Z,100889.09
2022-11-28T03:32:03.119Z,100890.00
2022-11-28T03:34:45.923Z,100883.91
2022-11-28T03:37:29.217Z,100891.56
2022-11-28T03:40:05.331Z,100880.72
2022-11-28T03:42:41.172Z,100887.06
2022-11-28T03:45:24.848Z,100896.78
2022-11-28T03:48:03.109Z,100898.66
2022-11-28T03:50:44.233Z,100904.88
2022-11-28T03:53:20.986Z,100898.00
2022-11-28T03:56:00.043Z,100897.88
2022-11-28T03:58:40.771Z,100910.41
2022-11-28T04:01:41.818Z,100897.38
2022-11-28T04:04:22.264Z,100899.78
2022-11-28T04:06:57.837Z,100911.13
2022-11-28T04:09:42.923Z,100907.38
2022-11-28T04:12:32.040Z,100908.53
2022-11-28T04:15:13.906Z,100905.28
2022-11-28T04:18:00.189Z,100916.97
2022-11-28T04:20:55.598Z,100913.47
2022-11-28T04:23:27.263Z,100907.81
2022-11-28T04:26:00.214Z,100910.69
2022-11-28T04:28:33.899Z,100919.88
2022-11-28T04:31:07.402Z,100920.91
2022-11-28T04:33:41.891Z,100936.03
2022-11-28T04:36:14.140Z,100924.84
2022-11-28T04:38:50.885Z,100928.00
2022-11-28T04:41:44.604Z,100929.63
2022-11-28T04:44:27.541Z,100938.72
2022-11-28T04:46:59.553Z,100938.28
2022-11-28T04:49:29.940Z,100947.81
2022-11-28T04:52:06.940Z,100941.28
2022-11-28T04:54:40.773Z,100940.69
2022-11-28T04:57:29.202Z,100935.28
2022-11-28T05:00:02.616Z,100930.25
2022-11-28T05:02:34.766Z,100935.09
2022-11-28T05:05:17.626Z,100941.34
2022-11-28T05:07:48.977Z,100938.88
2022-11-28T05:10:20.805Z,100929.16
2022-11-28T05:12:51.952Z,100925.06
2022-11-28T05:15:22.969Z,100925.78
2022-11-28T05:17:54.174Z,100922.97
2022-11-28T05:20:25.090Z,100921.47
2022-11-28T05:22:56.198Z,100926.56
2022-11-28T05:25:26.988Z,100943.78
2022-11-28T05:27:58.103Z,100941.44
2022-11-28T05:30:28.876Z,100936.63
2022-11-28T05:33:01.375Z,100934.94
2022-11-28T05:35:32.180Z,100953.25
2022-11-28T05:38:03.443Z,100957.28
2022-11-28T05:40:34.232Z,100954.81
2022-11-28T05:43:05.606Z,100950.19
2022-11-28T05:45:36.574Z,100943.03
2022-11-28T05:48:07.904Z,100944.28
2022-11-28T05:50:41.790Z,100955.41
2022-11-28T05:53:13.315Z,100964.25
2022-11-28T05:55:44.109Z,100969.97
2022-11-28T05:58:14.842Z,100965.44
2022-11-28T06:00:45.867Z,100970.41
2022-11-28T06:03:16.981Z,100971.78
2022-11-28T06:05:48.287Z,100973.53
2022-11-28T06:08:19.295Z,100977.22
2022-11-28T06:11:01.444Z,100988.97
2022-11-28T06:13:32.212Z,100981.16
2022-11-28T06:16:03.198Z,100993.84
2022-11-28T06:18:34.155Z,100999.09
2022-11-28T06:21:06.413Z,100994.53
2022-11-28T06:23:37.985Z,100987.97
2022-11-28T06:26:10.654Z,101005.13
2022-11-28T06:28:42.500Z,101000.22
2022-11-28T06:31:13.638Z,101002.41
2022-11-28T06:33:44.865Z,101006.28
2022-11-28T06:36:17.477Z,101008.69
2022-11-28T06:38:48.956Z,101013.88
2022-11-28T06:41:21.484Z,101019.09
2022-11-28T06:43:53.372Z,101014.47
2022-11-28T06:46:24.748Z,101022.91
2022-11-28T06:48:55.831Z,101021.25
2022-11-28T06:51:27.003Z,101019.63
2022-11-28T06:53:58.047Z,101023.16
2022-11-28T06:56:29.028Z,101025.88
2022-11-28T06:59:01.660Z,101024.22
2022-11-28T07:01:33.913Z,101029.09
2022-11-28T07:04:04.760Z,101026.94
2022-11-28T07:06:36.428Z,101012.00
2022-11-28T07:09:07.286Z,101023.91
2022-11-28T07:11:38.120Z,101012.75
2022-11-28T07:14:09.255Z,101027.41
2022-11-28T07:16:40.741Z,101040.09
2022-11-28T07:19:14.445Z,101037.66
2022-11-28T07:21:45.623Z,101042.50
2022-11-28T07:24:16.525Z,101055.50
2022-11-28T07:26:48.894Z,101048.03
2022-11-28T07:29:21.221Z,101051.28
2022-11-28T07:31:52.411Z,101058.28
2022-11-28T07:34:23.378Z,101054.69
2022-11-28T07:36:54.082Z,101065.53
2022-11-28T07:39:25.344Z,101058.81
2022-11-28T07:41:56.410Z,101069.63
2022-11-28T07:44:27.570Z,101078.03
2022-11-28T07:46:58.674Z,101080.34
2022-11-28T07:49:30.009Z,101087.19
2022-11-28T07:52:01.044Z,101082.56
2022-11-28T07:54:31.791Z,101088.13
2022-11-28T07:57:17.972Z,101091.34
2022-11-28T07:59:48.757Z,101093.44
2022-11-28T08:02:20.298Z,101087.16
2022-11-28T08:04:55.156Z,101091.16
2022-11-28T08:07:26.426Z,101100.34
2022-11-28T08:09:57.348Z,101105.34
2022-11-28T08:12:28.126Z,101095.22
2022-11-28T08:15:00.018Z,101098.63
2022-11-28T08:17:31.777Z,101110.41
2022-11-28T08:20:02.693Z,101107.09
2022-11-28T08:22:33.701Z,101121.97
2022-11-28T08:25:04.938Z,101125.63
2022-11-28T08:27:36.364Z,101114.31
2022-11-28T08:30:08.419Z,101123.47
2022-11-28T08:32:39.681Z,101130.91
2022-11-28T08:35:11.140Z,101127.41
2022-11-28T08:37:42.093Z,101126.50
2022-11-28T08:40:13.496Z,101145.53
2022-11-28T08:42:44.972Z,101149.84
2022-11-28T08:45:17.585Z,101156.41
2022-11-28T08:47:48.865Z,101163.09
2022-11-28T08:50:20.047Z,101167.72
2022-11-28T08:52:51.478Z,101158.69
2022-11-28T08:55:31.720Z,101172.63
2022-11-28T08:58:03.452Z,101174.88
2022-11-28T09:00:35.162Z,101167.66
2022-11-28T09:03:06.981Z,101169.81
2022-11-28T09:05:37.947Z,101175.69
2022-11-28T09:08:11.653Z,101166.63
2022-11-28T09:10:44.072Z,101181.00
2022-11-28T09:13:17.242Z,101175.75
2022-11-28T09:15:52.532Z,101181.66
2022-11-28T09:18:24.642Z,101175.09
2022-11-28T09:21:08.997Z,101184.59
2022-11-28T09:23:42.513Z,101180.63
2022-11-28T09:26:19.436Z,101178.41
2022-11-28T09:28:50.377Z,101180.66
2022-11-28T09:31:22.305Z,101176.78
2022-11-28T09:33:53.454Z,101176.56
2022-11-28T09:36:26.013Z,101172.78
2022-11-28T09:38:57.001Z,101175.72
2022-11-28T09:42:06.109Z,101181.69
2022-11-28T09:44:39.884Z,101185.88
2022-11-28T09:47:38.276Z,101185.28
2022-11-28T09:50:23.196Z,101196.59
2022-11-28T09:53:24.206Z,101203.13
2022-11-28T09:55:57.100Z,101213.03
2022-11-28T09:58:43.212Z,101207.00
2022-11-28T10:01:26.814Z,101195.63
2022-11-28T10:04:19.145Z,101193.72
2022-11-28T10:06:59.515Z,101207.25
2022-11-28T10:09:33.062Z,101216.78
2022-11-28T10:12:49.255Z,101200.22
2022-11-28T10:15:42.316Z,101194.50
2022-11-28T10:18:39.694Z,101196.28
2022-11-28T10:21:38.361Z,101200.41
2022-11-28T10:24:23.621Z,101203.81
2022-11-28T10:26:58.135Z,101198.81
2022-11-28T10:29:35.760Z,101203.81
2022-11-28T10:32:07.314Z,101195.16
2022-11-28T10:34:45.164Z,101190.31
2022-11-28T10:37:23.075Z,101202.53
2022-11-28T10:39:54.169Z,101197.22
2022-11-28T10:42:41.911Z,101191.81
2022-11-28T10:45:34.332Z,101191.97
2022-11-28T10:48:37.278Z,101192.06
2022-11-28T10:51:24.227Z,101190.63
2022-11-28T10:54:30.169Z,101204.50
2022-11-28T10:57:17.780Z,101198.13
2022-11-28T11:00:03.130Z,101207.22
2022-11-28T11:02:51.435Z,101203.63
2022-11-28T11:05:31.590Z,101214.78
2022-11-28T11:08:26.386Z,101209.38
2022-11-28T11:11:13.305Z,101210.84
2022-11-28T11:14:04.965Z,101211.41
2022-11-28T11:16:55.207Z,101211.16
2022-11-28T11:19:28.698Z,101210.59
2022-11-28T11:22:22.502Z,101210.81
2022-11-28T11:25:14.538Z,101220.59
2022-11-28T11:27:55.869Z,101215.75
2022-11-28T11:30:40.655Z,101214.69
2022-11-28T11:33:20.633Z,101221.50
2022-11-28T11:35:51.978Z,101221.34
2022-11-28T11:38:34.798Z,101218.31
2022-11-28T11:41:43.436Z,101214.31
2022-11-28T11:44:17.464Z,101216.97
2022-11-28T11:46:56.114Z,101215.28
2022-11-28T11:49:33.815Z,101207.38
2022-11-28T12:02:08.176Z,101206.34
2022-11-28T12:04:51.106Z,101201.25
2022-11-28T12:07:34.133Z,101200.03
2022-11-28T12:10:07.086Z,101198.56
2022-11-28T12:12:39.527Z,101202.97
2022-11-28T12:15:24.043Z,101195.38
2022-11-28T13:22:02.633Z,101153.06
2022-11-28T13:25:10.608Z,101158.50
2022-11-28T13:27:47.454Z,101158.50
2022-11-28T13:30:26.107Z,101166.03
2022-11-28T13:33:21.478Z,101156.28
2022-11-28T13:35:52.648Z,101153.72
2022-11-28T13:38:50.482Z,101150.69
2022-11-28T13:45:58.230Z,101136.44
2022-11-28T13:53:12.739Z,101146.81
2022-11-28T13:55:48.586Z,101147.41
2022-11-28T13:58:30.877Z,101143.50
2022-11-28T14:01:15.304Z,101143.88
2022-11-28T14:04:02.887Z,101145.69
2022-11-28T14:06:49.321Z,101138.44
2022-11-28T14:10:05.452Z,101145.38
2022-11-28T14:13:06.074Z,101145.84
2022-11-28T14:15:43.539Z,101148.81
2022-11-28T14:18:54.424Z,101153.91
2022-11-28T14:21:32.024Z,101152.50
2022-11-28T14:24:39.248Z,101151.84
2022-11-28T14:27:23.402Z,101136.78
2022-11-28T14:29:56.237Z,101144.41
2022-11-28T14:32:44.666Z,101142.53
2022-11-28T14:35:40.110Z,101141.47
2022-11-28T14:38:35.113Z,101135.06
2022-11-28T14:41:13.065Z,101137.03
2022-11-28T14:43:50.233Z,101139.88
2022-11-28T14:46:31.828Z,101147.09
2022-11-28T14:49:02.987Z,101155.94
2022-11-28T14:51:53.592Z,101160.78
2022-11-28T14:54:32.573Z,101154.41
2022-11-28T14:57:04.275Z,101151.94
2022-11-28T14:59:39.392Z,101157.75
2022-11-28T15:02:14.301Z,101154.88
2022-11-28T15:05:01.004Z,101145.63
2022-11-28T15:07:48.849Z,101145.13
2022-11-28T15:10:44.967Z,101147.31
2022-11-28T15:13:22.191Z,101160.09
2022-11-28T15:15:55.287Z,101151.19
2022-11-28T15:18:27.695Z,101154.31
2022-11-28T15:21:04.435Z,101149.41
2022-11-28T15:23:38.513Z,101147.03
2022-11-28T15:26:17.547Z,101142.84
2022-11-28T15:28:49.518Z,101140.06
2022-11-28T15:31:25.262Z,101142.53
2022-11-28T15:33:56.560Z,101138.34
2022-11-28T15:36:30.390Z,101151.69
2022-11-28T15:39:01.468Z,101141.53
2022-11-28T15:41:33.214Z,101144.00
2022-11-28T15:44:04.208Z,101150.13
2022-11-28T15:46:36.674Z,101153.47
2022-11-28T15:49:08.785Z,101151.03
2022-11-28T15:51:39.817Z,101158.84
2022-11-28T15:54:37.230Z,101170.88
2022-11-28T15:57:09.464Z,101180.03
2022-11-28T15:59:40.703Z,101174.41
2022-11-28T16:02:32.078Z,101166.56
2022-11-28T16:05:11.694Z,101167.91
2022-11-28T16:07:46.807Z,101174.81
2022-11-28T16:10:28.100Z,101181.44
2022-11-28T16:13:04.494Z,101187.66
2022-11-28T16:15:35.301Z,101175.28
2022-11-28T16:18:06.515Z,101185.88
2022-11-28T16:20:38.423Z,101185.78
2022-11-28T16:23:32.100Z,101180.78
2022-11-28T16:26:04.119Z,101189.69
2022-11-28T16:28:38.367Z,101177.91
2022-11-28T16:31:14.116Z,101185.13
2022-11-28T16:33:46.986Z,101185.72
2022-11-28T16:36:17.968Z,101190.53
2022-11-28T16:38:50.246Z,101188.06
2022-11-28T16:41:22.721Z,101185.47
2022-11-28T16:44:23.788Z,101184.78
2022-11-28T16:46:57.345Z,101181.91
2022-11-28T16:49:45.570Z,101198.22
2022-11-28T16:52:25.932Z,101200.50
2022-11-28T16:55:00.700Z,101197.91
2022-11-28T16:57:49.187Z,101201.94
2022-11-28T17:00:21.554Z,101205.13
2022-11-28T17:02:55.974Z,101212.75
2022-11-28T17:05:26.802Z,101210.38
2022-11-28T17:07:58.124Z,101215.47
2022-11-28T17:10:29.380Z,101234.00
2022-11-28T17:13:00.112Z,101223.41
2022-11-28T17:15:30.851Z,101219.75
2022-11-28T17:18:01.954Z,101222.69
2022-11-28T17:20:32.994Z,101230.81
2022-11-28T17:23:04.464Z,101226.78
2022-11-28T17:25:35.401Z,101219.19
2022-11-28T17:28:06.840Z,101229.91
2022-11-28T17:30:38.062Z,101233.50
2022-11-28T17:33:09.227Z,101225.06
2022-11-28T17:35:44.193Z,101230.63
2022-11-28T17:38:15.217Z,101230.56
2022-11-28T17:40:48.215Z,101229.16
2022-11-28T17:43:23.804Z,101241.38
2022-11-28T17:45:54.575Z,101243.00
2022-11-28T17:48:26.218Z,101247.63
2022-11-28T17:50:57.527Z,101239.25
2022-11-28T17:53:28.320Z,101248.84
2022-11-28T17:56:01.433Z,101246.91
2022-11-28T17:58:32.774Z,101251.81
2022-11-28T18:01:03.802Z,101251.47
2022-11-28T18:03:34.749Z,101247.00
2022-11-28T18:06:06.938Z,101237.53
2022-11-28T18:08:37.881Z,101244.66
2022-11-28T18:11:11.689Z,101252.16
2022-11-28T18:13:43.949Z,101246.31
2022-11-28T18:16:16.462Z,101250.03
2022-11-28T18:18:47.931Z,101247.97
2022-11-28T18:21:19.135Z,101248.34
2022-11-28T18:23:52.311Z,101246.53
2022-11-28T18:26:25.457Z,101248.13
2022-11-28T18:28:57.363Z,101255.75
2022-11-28T18:31:30.530Z,101245.00
2022-11-28T18:34:04.983Z,101248.31
2022-11-28T18:36:40.563Z,101259.91
2022-11-28T18:39:16.699Z,101259.06
2022-11-28T18:41:48.061Z,101256.19
2022-11-28T18:44:19.805Z,101252.25
2022-11-28T18:46:51.897Z,101252.94
2022-11-28T18:49:23.134Z,101252.47
2022-11-28T18:51:54.012Z,101271.19
2022-11-28T18:54:27.410Z,101264.97
2022-11-28T18:56:58.951Z,101265.00
2022-11-28T18:59:31.940Z,101262.91
2022-11-28T19:02:03.277Z,101267.00
2022-11-28T19:04:34.349Z,101268.22
2022-11-28T19:07:05.621Z,101262.78
2022-11-28T19:09:36.415Z,101270.88
2022-11-28T19:12:08.739Z,101275.44
2022-11-28T19:14:39.952Z,101284.81
2022-11-28T19:17:13.469Z,101285.41
2022-11-28T19:19:45.576Z,101289.91
2022-11-28T19:22:16.743Z,101288.81
2022-11-28T19:24:47.628Z,101274.41
2022-11-28T19:27:18.779Z,101278.81
2022-11-28T19:29:50.093Z,101286.50
2022-11-28T19:32:20.820Z,101282.91
2022-11-28T19:34:53.768Z,101290.25
2022-11-28T19:37:24.546Z,101289.13
2022-11-28T19:39:59.757Z,101284.97
2022-11-28T19:42:35.531Z,101277.84
2022-11-28T19:45:06.721Z,101274.34
2022-11-28T19:47:37.762Z,101273.41
2022-11-28T19:50:11.088Z,101279.41
2022-11-28T19:52:42.433Z,101272.59
2022-11-28T19:55:13.649Z,101278.59
2022-11-28T19:57:44.664Z,101283.56
2022-11-28T20:00:16.792Z,101276.88
2022-11-28T20:02:51.829Z,101274.22
2022-11-28T20:05:23.046Z,101267.94
2022-11-28T20:07:58.349Z,101274.56
2022-11-28T20:10:30.133Z,101260.72
2022-11-28T20:13:01.296Z,101269.16
2022-11-28T20:15:32.532Z,101276.72
2022-11-28T20:18:04.070Z,101277.28
2022-11-28T20:20:36.111Z,101277.56
2022-11-28T20:23:07.026Z,101276.41
2022-11-28T20:25:38.158Z,101278.28
2022-11-28T20:28:09.516Z,101275.84
2022-11-28T20:30:41.145Z,101275.13
2022-11-28T20:33:12.112Z,101285.25
2022-11-28T20:35:44.181Z,101274.53
2022-11-28T20:38:14.884Z,101278.25
2022-11-28T20:40:45.815Z,101277.16
2022-11-28T20:43:16.517Z,101275.53
2022-11-28T20:45:47.551Z,101278.34
2022-11-28T20:48:18.778Z,101276.13
2022-11-28T20:50:49.696Z,101279.88
2022-11-28T20:53:26.454Z,101272.00
2022-11-28T20:56:05.660Z,101252.72
2022-11-28T20:58:36.760Z,101243.47
2022-11-28T21:01:08.101Z,101252.72
2022-11-28T21:03:38.830Z,101239.81
2022-11-28T21:06:09.895Z,101226.19
2022-11-28T21:08:41.623Z,101238.50
2022-11-28T21:11:50.247Z,101232.31
2022-11-28T21:14:13.391Z,101236.28
2022-11-28T21:16:45.196Z,101233.84
2022-11-28T21:19:16.033Z,101242.56
2022-11-28T21:21:47.027Z,101243.38
2022-11-28T21:24:17.795Z,101242.31
2022-11-28T21:26:53.575Z,101239.72
2022-11-28T21:29:26.486Z,101243.47
2022-11-28T21:31:57.533Z,101250.59
2022-11-28T21:34:28.565Z,101254.25
2022-11-28T21:36:59.779Z,101242.38
2022-11-28T21:39:30.625Z,101245.84
2022-11-28T21:42:03.229Z,101245.78
2022-11-28T21:44:34.012Z,101243.88
2022-11-28T21:47:06.496Z,101238.78
2022-11-28T21:49:37.486Z,101240.25
2022-11-28T21:52:10.899Z,101232.25
2022-11-28T21:54:42.152Z,101235.31
2022-11-28T21:57:12.950Z,101233.03
2022-11-28T21:59:44.466Z,101234.59
2022-11-28T22:02:20.200Z,101224.19
2022-11-28T22:04:51.378Z,101231.22
2022-11-28T22:07:22.513Z,101238.91
2022-11-28T22:09:55.621Z,101235.19
2022-11-28T22:12:26.633Z,101229.84
2022-11-28T22:14:57.546Z,101218.84
2022-11-28T22:17:29.745Z,101223.00
2022-11-28T22:20:01.097Z,101230.78
2022-11-28T22:22:33.526Z,101224.94
2022-11-28T22:25:04.525Z,101218.88
2022-11-28T22:27:37.058Z,101215.47
2022-11-28T22:30:11.145Z,101207.16
2022-11-28T22:32:41.988Z,101199.09
2022-11-28T22:35:12.712Z,101192.63
2022-11-28T22:37:43.784Z,101201.13
2022-11-28T22:40:15.713Z,101213.75
2022-11-28T22:42:46.929Z,101202.94
2022-11-28T22:45:17.789Z,101187.00
2022-11-28T22:47:49.069Z,101189.88
2022-11-28T22:50:20.235Z,101184.38
2022-11-28T22:52:51.049Z,101176.63
2022-11-28T22:55:22.147Z,101162.28
2022-11-28T22:57:53.301Z,101172.19
2022-11-28T23:00:24.599Z,101176.53
2022-11-28T23:02:55.818Z,101184.47
2022-11-28T23:05:27.049Z,101184.38
2022-11-28T23:07:58.037Z,101184.75
2022-11-28T23:10:30.224Z,101175.56
2022-11-28T23:13:01.369Z,101171.94
2022-11-28T23:15:32.403Z,101171.22
2022-11-28T23:18:03.552Z,101161.91
2022-11-28T23:20:34.513Z,101167.16
2022-11-28T23:23:06.043Z,101161.19
2022-11-28T23:25:38.225Z,101160.38
2022-11-28T23:28:09.502Z,101156.38
2022-11-28T23:30:40.585Z,101152.59
2022-11-28T23:33:11.565Z,101158.72
2022-11-28T23:35:42.605Z,101141.47
2022-11-28T23:38:14.140Z,101136.38
2022-11-28T23:40:45.052Z,101137.44
2022-11-28T23:43:16.065Z,101136.19
2022-11-28T23:45:46.838Z,101125.28
2022-11-28T23:48:18.181Z,101128.44
2022-11-28T23:50:49.537Z,101129.72
2022-11-28T23:53:20.357Z,101121.75
2022-11-28T23:55:51.273Z,101118.31
2022-11-28T23:58:22.541Z,101122.13
